Time;durP1;ratioP1;P1;durP2;ratioP2;P2;SDS_P1;SDS_P2;PMS_P1;PMS_P2;Temp;Humidity;BMP_temperature;BMP_pressure;BME280_temperature;BME280_humidity;BME280_pressure;Samples;Min_cycle;Max_cycle;Signal;HPM_P1;HPM_P2
2022/06/16 00:00:25;;;;;;;9.95;4.75;;;13.80;99.90;;;;;;5060520;28;20155;-75
2022/06/16 00:02:51;;;;;;;10.43;4.70;;;13.70;99.90;;;;;;5060938;28;20074;-75
2022/06/16 00:05:21;;;;;;;10.48;4.20;;;13.70;99.90;;;;;;5062223;28;20032;-74
2022/06/16 00:07:47;;;;;;;11.07;4.47;;;13.70;99.90;;;;;;5045080;28;20041;-74
2022/06/16 00:10:14;;;;;;;9.52;4.20;;;13.70;99.90;;;;;;5064418;28;20047;-74
2022/06/16 00:12:40;;;;;;;9.60;4.15;;;13.60;99.90;;;;;;5045709;28;20040;-74
2022/06/16 00:15:09;;;;;;;10.20;4.65;;;13.60;99.90;;;;;;5063144;28;20112;-74
2022/06/16 00:17:35;;;;;;;9.27;4.60;;;13.60;99.90;;;;;;5045886;28;20040;-74
2022/06/16 00:20:04;;;;;;;9.57;4.60;;;13.60;99.90;;;;;;5045602;28;20041;-74
2022/06/16 00:22:31;;;;;;;10.65;4.57;;;13.60;99.90;;;;;;5043221;28;20151;-74
2022/06/16 00:24:57;;;;;;;9.80;4.68;;;13.60;99.90;;;;;;5063600;28;20032;-74
2022/06/16 00:27:23;;;;;;;10.73;4.90;;;13.60;99.90;;;;;;5044606;28;20037;-74
2022/06/16 00:29:49;;;;;;;10.60;4.60;;;13.60;99.90;;;;;;5047533;28;20261;-74
2022/06/16 00:32:15;;;;;;;12.70;4.80;;;13.60;99.90;;;;;;5063939;28;20040;-74
2022/06/16 00:34:40;;;;;;;9.27;4.40;;;13.60;99.90;;;;;;5045217;28;20044;-74
2022/06/16 00:37:06;;;;;;;10.13;4.60;;;13.60;99.90;;;;;;5080419;28;20044;-74
2022/06/16 00:39:32;;;;;;;12.15;4.80;;;13.60;99.90;;;;;;5063201;28;20166;-74
2022/06/16 00:42:09;;;;;;;10.85;4.72;;;13.70;99.90;;;;;;5081434;28;20254;-74
2022/06/16 00:44:34;;;;;;;9.85;4.55;;;13.70;99.90;;;;;;5080441;28;20059;-74
2022/06/16 00:47:00;;;;;;;9.05;4.43;;;13.60;99.90;;;;;;5059753;28;20494;-74
2022/06/16 00:49:27;;;;;;;9.88;4.25;;;13.70;99.90;;;;;;5061939;28;20044;-74
2022/06/16 00:52:00;;;;;;;9.75;4.10;;;13.70;99.90;;;;;;5046325;28;20060;-74
2022/06/16 00:54:38;;;;;;;9.95;4.10;;;13.70;99.90;;;;;;5083266;28;20040;-74
2022/06/16 00:57:14;;;;;;;10.30;4.30;;;13.70;99.90;;;;;;5083490;28;20535;-74
2022/06/16 00:59:41;;;;;;;9.73;4.55;;;13.70;99.90;;;;;;5083942;28;20078;-74
2022/06/16 01:02:08;;;;;;;10.25;4.65;;;13.60;99.90;;;;;;5050772;28;20044;-74
2022/06/16 01:04:52;;;;;;;12.05;4.65;;;13.60;99.90;;;;;;5069431;28;20437;-74
2022/06/16 01:07:32;;;;;;;8.98;4.20;;;13.60;99.90;;;;;;5056438;28;20054;-74
2022/06/16 01:09:59;;;;;;;10.25;4.25;;;13.60;99.90;;;;;;5068696;28;20052;-74
2022/06/16 01:15:40;;;;;;;10.40;4.43;;;13.50;99.90;;;;;;5081950;28;20044;-74
2022/06/16 01:18:21;;;;;;;11.80;4.68;;;13.50;99.90;;;;;;5086648;28;20136;-74
2022/06/16 01:20:57;;;;;;;10.40;4.65;;;13.50;99.90;;;;;;5081866;28;20043;-75
2022/06/16 01:23:44;;;;;;;9.93;4.35;;;13.40;99.90;;;;;;5082542;28;20143;-75
2022/06/16 01:26:44;;;;;;;11.02;4.75;;;13.40;99.90;;;;;;5066341;28;20055;-75
2022/06/16 01:29:46;;;;;;;9.77;4.43;;;13.40;99.90;;;;;;5070214;28;20121;-75
2022/06/16 01:32:38;;;;;;;8.88;4.10;;;13.40;99.90;;;;;;5085400;28;20039;-75
2022/06/16 01:35:13;;;;;;;11.43;4.45;;;13.40;99.90;;;;;;5060363;28;20051;-75
2022/06/16 01:37:54;;;;;;;13.02;4.68;;;13.40;99.90;;;;;;5066354;28;20165;-75
2022/06/16 01:40:25;;;;;;;9.32;4.00;;;13.30;99.90;;;;;;5084644;28;20036;-75
2022/06/16 01:42:56;;;;;;;10.43;4.40;;;13.30;99.90;;;;;;5081774;28;20119;-75
2022/06/16 01:45:31;;;;;;;9.55;4.40;;;13.30;99.90;;;;;;5068639;28;20420;-75
2022/06/16 01:47:58;;;;;;;10.77;4.40;;;13.20;99.90;;;;;;5081821;28;20237;-75
2022/06/16 01:50:35;;;;;;;10.05;4.43;;;13.30;99.90;;;;;;5068046;28;20051;-74
2022/06/16 01:53:08;;;;;;;9.48;4.20;;;13.30;99.90;;;;;;5080694;28;20033;-75
2022/06/16 01:55:49;;;;;;;12.10;4.68;;;13.30;99.90;;;;;;5084294;28;21419;-75
2022/06/16 01:58:19;;;;;;;12.73;4.85;;;13.30;99.90;;;;;;5085383;28;20104;-75
2022/06/16 02:00:49;;;;;;;11.10;4.40;;;13.30;99.90;;;;;;5084033;28;20122;-74
2022/06/16 02:03:25;;;;;;;10.65;4.60;;;13.30;99.90;;;;;;5081513;28;20050;-75
2022/06/16 02:06:23;;;;;;;10.15;4.30;;;13.40;99.90;;;;;;5081192;28;20052;-75
2022/06/16 02:08:56;;;;;;;9.50;4.20;;;13.30;99.90;;;;;;5059210;28;20048;-74
2022/06/16 02:11:30;;;;;;;;;;;13.40;99.90;;;;;;5068876;28;20054;-74
2022/06/16 02:14:26;;;;;;;9.88;4.18;;;13.40;99.90;;;;;;5067132;28;20022;-74
2022/06/16 02:16:52;;;;;;;9.10;4.13;;;13.40;99.90;;;;;;5083018;28;20055;-74
2022/06/16 02:19:20;;;;;;;9.20;3.97;;;13.40;99.90;;;;;;5085935;28;20141;-75
2022/06/16 02:21:49;;;;;;;9.35;4.00;;;13.40;99.90;;;;;;5065672;28;20058;-75
2022/06/16 02:24:17;;;;;;;10.20;4.68;;;13.40;99.90;;;;;;5080051;28;20032;-75
2022/06/16 02:26:44;;;;;;;11.55;4.40;;;13.40;99.90;;;;;;5083174;28;20093;-75
2022/06/16 02:29:34;;;;;;;9.40;4.03;;;13.40;99.90;;;;;;5068925;28;20470;-75
2022/06/16 02:32:25;;;;;;;10.18;4.47;;;13.50;99.90;;;;;;5085165;28;20043;-75
2022/06/16 02:35:22;;;;;;;9.85;4.38;;;13.40;99.90;;;;;;5080846;28;20497;-74
2022/06/16 02:37:57;;;;;;;11.35;4.60;;;13.40;99.90;;;;;;5081422;28;20056;-75
2022/06/16 02:40:58;;;;;;;10.13;4.40;;;13.40;99.90;;;;;;5066575;28;20043;-75
2022/06/16 02:43:39;;;;;;;9.63;4.25;;;13.40;99.90;;;;;;5071104;28;20044;-74
2022/06/16 02:46:18;;;;;;;10.60;4.60;;;13.30;99.90;;;;;;5064653;28;20041;-74
2022/06/16 02:49:04;;;;;;;10.73;4.22;;;13.30;99.90;;;;;;5083211;28;20051;-75
2022/06/16 02:51:54;;;;;;;9.73;4.13;;;13.30;99.90;;;;;;5065253;28;20028;-75
2022/06/16 02:54:22;;;;;;;8.55;4.05;;;13.30;99.90;;;;;;5064028;28;20068;-75
2022/06/16 02:57:07;;;;;;;11.48;4.57;;;13.20;99.90;;;;;;5065652;28;20116;-74
2022/06/16 02:59:38;;;;;;;10.70;4.50;;;13.20;99.90;;;;;;5067052;28;20040;-75
2022/06/16 03:02:11;;;;;;;10.80;4.85;;;13.10;99.90;;;;;;5083488;28;20040;-75
2022/06/16 03:04:40;;;;;;;11.23;5.10;;;13.10;99.90;;;;;;5082824;28;20517;-75
2022/06/16 03:07:07;;;;;;;13.23;4.90;;;13.00;99.90;;;;;;5080924;28;20071;-74
2022/06/16 03:09:33;;;;;;;10.85;4.80;;;13.00;99.90;;;;;;5075961;28;20135;-74
2022/06/16 03:11:59;;;;;;;11.43;4.72;;;13.00;99.90;;;;;;5018988;28;20032;-75
2022/06/16 03:14:25;;;;;;;9.65;4.43;;;13.00;99.90;;;;;;5046753;28;20038;-75
2022/06/16 03:16:52;;;;;;;12.85;4.90;;;13.00;99.90;;;;;;5067570;28;20119;-75
2022/06/16 03:19:18;;;;;;;9.50;4.78;;;12.90;99.90;;;;;;5083054;28;20126;-74
2022/06/16 03:21:44;;;;;;;10.52;4.63;;;12.90;99.90;;;;;;5066814;28;20043;-74
2022/06/16 03:24:10;;;;;;;11.23;4.78;;;12.90;99.90;;;;;;5068428;28;20434;-75
2022/06/16 03:26:36;;;;;;;11.30;5.10;;;12.90;99.90;;;;;;5025929;28;20044;-75
2022/06/16 03:29:01;;;;;;;12.18;4.97;;;12.90;99.90;;;;;;5027761;28;20047;-75
2022/06/16 03:31:27;;;;;;;12.52;4.88;;;12.90;99.90;;;;;;5048332;28;20032;-75
2022/06/16 03:33:53;;;;;;;10.55;4.82;;;12.90;99.90;;;;;;5065729;28;20064;-75
2022/06/16 03:36:19;;;;;;;12.65;5.15;;;12.90;99.90;;;;;;5063776;28;20040;-75
2022/06/16 03:38:45;;;;;;;12.05;4.97;;;13.00;99.90;;;;;;5023701;28;20463;-75
2022/06/16 03:41:12;;;;;;;10.95;5.10;;;13.00;99.90;;;;;;5051389;28;20118;-74
2022/06/16 03:43:38;;;;;;;9.70;4.75;;;13.00;99.90;;;;;;5079984;28;20086;-75
2022/06/16 03:46:04;;;;;;;9.55;4.80;;;13.00;99.90;;;;;;5049642;28;20119;-75
2022/06/16 03:48:31;;;;;;;12.68;4.88;;;13.00;99.90;;;;;;5065433;28;20115;-75
2022/06/16 03:50:57;;;;;;;10.10;4.43;;;13.80;99.90;;;;;;5068771;28;20158;-75
2022/06/16 03:53:22;;;;;;;9.60;5.03;;;13.10;99.90;;;;;;5065264;28;20050;-75
2022/06/16 03:55:48;;;;;;;12.52;4.82;;;13.10;99.90;;;;;;5049053;28;20093;-75
2022/06/16 03:58:14;;;;;;;11.45;4.90;;;13.20;99.90;;;;;;5082475;28;20051;-75
2022/06/16 04:00:40;;;;;;;10.40;4.40;;;13.20;99.90;;;;;;5064900;28;20494;-75
2022/06/16 04:05:51;;;;;;;9.85;4.38;;;13.20;99.90;;;;;;5064510;28;20080;-75
2022/06/16 04:08:19;;;;;;;9.27;4.38;;;12.90;99.90;;;;;;5083013;28;20068;-75
2022/06/16 04:10:46;;;;;;;11.13;4.82;;;13.30;99.90;;;;;;5066255;28;20047;-75
2022/06/16 04:13:12;;;;;;;10.38;4.60;;;13.40;99.90;;;;;;5065773;28;20040;-75
2022/06/16 04:15:38;;;;;;;10.55;4.88;;;13.40;99.90;;;;;;5080049;28;20448;-74
2022/06/16 04:18:04;;;;;;;10.15;4.50;;;13.50;99.90;;;;;;5062945;28;20046;-75
2022/06/16 04:20:30;;;;;;;9.90;4.65;;;13.50;99.90;;;;;;5065781;28;20123;-74
2022/06/16 04:22:56;;;;;;;11.52;5.13;;;13.60;99.90;;;;;;5083326;28;20033;-75
2022/06/16 04:25:30;;;;;;;10.95;4.75;;;13.60;99.90;;;;;;5063181;28;20081;-74
2022/06/16 04:27:58;;;;;;;10.63;4.50;;;13.70;99.90;;;;;;5060521;28;20036;-75
2022/06/16 04:30:23;;;;;;;12.60;4.95;;;13.70;99.90;;;;;;5078288;28;20043;-75
2022/06/16 04:32:49;;;;;;;12.15;5.07;;;13.70;99.90;;;;;;5081631;28;20043;-74
2022/06/16 04:35:15;;;;;;;10.75;5.20;;;13.70;99.90;;;;;;5047228;28;20068;-74
2022/06/16 04:37:41;;;;;;;10.27;4.78;;;13.70;99.90;;;;;;5041872;28;20547;-75
2022/06/16 04:40:09;;;;;;;9.88;4.53;;;13.80;99.90;;;;;;5061094;28;20076;-75
2022/06/16 04:42:34;;;;;;;9.82;4.15;;;13.80;99.90;;;;;;5064262;28;20047;-75
2022/06/16 04:45:00;;;;;;;10.30;4.18;;;13.90;99.90;;;;;;5074913;28;20028;-75
2022/06/16 04:47:26;;;;;;;10.98;4.85;;;13.90;99.90;;;;;;5079760;28;20036;-74
2022/06/16 04:49:52;;;;;;;10.43;4.60;;;14.00;99.90;;;;;;5062753;28;20047;-75
2022/06/16 04:52:18;;;;;;;8.40;4.03;;;14.20;99.90;;;;;;5046261;28;20067;-74
2022/06/16 04:54:48;;;;;;;11.07;4.30;;;14.30;99.90;;;;;;5058934;28;20040;-75
2022/06/16 04:57:14;;;;;;;10.73;4.25;;;14.30;99.90;;;;;;5034850;28;20090;-75
2022/06/16 04:59:40;;;;;;;9.23;4.20;;;14.40;99.90;;;;;;5079921;28;20039;-74
2022/06/16 05:02:06;;;;;;;9.82;4.10;;;14.50;99.90;;;;;;5077149;28;20115;-75
2022/06/16 05:04:33;;;;;;;9.70;4.20;;;14.60;99.90;;;;;;5080831;28;20070;-75
2022/06/16 05:06:59;;;;;;;11.48;4.18;;;14.70;99.90;;;;;;5062260;28;20052;-75
2022/06/16 05:09:25;;;;;;;9.23;4.00;;;14.90;99.90;;;;;;5079712;28;20355;-75
2022/06/16 05:11:51;;;;;;;9.73;3.55;;;15.00;99.90;;;;;;5043612;28;20528;-75
2022/06/16 05:14:16;;;;;;;7.70;2.95;;;15.20;99.90;;;;;;5084133;28;20044;-75
2022/06/16 05:16:42;;;;;;;10.18;3.40;;;15.30;99.90;;;;;;5081143;28;20044;-75
2022/06/16 05:19:08;;;;;;;9.13;3.03;;;15.50;99.90;;;;;;5065942;28;20036;-75
2022/06/16 05:21:34;;;;;;;7.55;2.53;;;15.70;99.90;;;;;;5080643;28;20120;-75
2022/06/16 05:24:00;;;;;;;10.82;3.28;;;15.70;99.90;;;;;;5081150;28;20048;-74
2022/06/16 05:26:26;;;;;;;9.65;3.28;;;15.90;99.90;;;;;;5062522;28;20055;-75
2022/06/16 05:28:52;;;;;;;7.40;2.30;;;16.00;99.90;;;;;;5063018;28;20036;-75
2022/06/16 05:31:17;;;;;;;7.25;2.15;;;16.10;99.90;;;;;;5078774;28;20064;-75
2022/06/16 05:33:43;;;;;;;7.47;2.17;;;16.20;99.90;;;;;;5063937;28;20055;-75
2022/06/16 05:36:11;;;;;;;7.03;2.08;;;16.30;99.90;;;;;;5062407;28;20041;-75
2022/06/16 05:38:38;;;;;;;7.45;1.92;;;16.30;99.90;;;;;;5066205;28;20059;-75
2022/06/16 05:41:13;;;;;;;8.10;2.10;;;16.40;99.90;;;;;;5062574;28;20036;-75
2022/06/16 05:43:40;;;;;;;8.85;2.28;;;16.50;99.90;;;;;;5064652;28;20507;-75
2022/06/16 05:46:07;;;;;;;7.05;1.98;;;16.50;99.90;;;;;;5081052;28;20037;-75
2022/06/16 05:48:33;;;;;;;8.70;2.90;;;16.60;99.90;;;;;;5070485;28;20051;-75
2022/06/16 05:51:07;;;;;;;9.18;2.67;;;16.70;99.90;;;;;;5051781;28;20044;-74
2022/06/16 05:53:33;;;;;;;6.85;2.20;;;16.70;99.90;;;;;;5077553;28;20120;-75
2022/06/16 05:55:58;;;;;;;7.28;2.40;;;16.80;99.90;;;;;;5068037;28;20473;-75
2022/06/16 05:58:24;;;;;;;8.45;2.63;;;16.80;99.90;;;;;;5083326;28;20494;-75
2022/06/16 06:00:50;;;;;;;6.90;2.53;;;16.90;99.90;;;;;;5054742;28;20036;-74
2022/06/16 06:03:16;;;;;;;7.80;2.20;;;16.80;99.90;;;;;;5070135;28;20036;-75
2022/06/16 06:05:41;;;;;;;8.05;2.22;;;16.90;99.90;;;;;;5088187;28;20032;-75
2022/06/16 06:16:25;;;;;;;8.15;2.05;;;17.20;99.90;;;;;;5062798;28;20373;-75
2022/06/16 06:18:56;;;;;;;8.93;2.13;;;17.20;99.90;;;;;;5063825;28;20401;-75
2022/06/16 06:24:09;;;;;;;7.15;2.20;;;17.20;99.90;;;;;;5072779;28;20561;-74
2022/06/16 06:26:35;;;;;;;6.18;1.98;;;17.30;99.90;;;;;;5070109;28;20415;-75
2022/06/16 06:29:01;;;;;;;8.75;2.13;;;17.50;99.90;;;;;;5084255;28;20033;-75
2022/06/16 06:31:27;;;;;;;9.23;2.33;;;17.60;99.90;;;;;;5066996;28;20123;-75
2022/06/16 06:33:53;;;;;;;6.50;2.10;;;17.60;99.90;;;;;;5068274;28;20144;-75
2022/06/16 06:36:18;;;;;;;8.07;2.28;;;17.70;99.90;;;;;;5069309;28;20036;-75
2022/06/16 06:38:44;;;;;;;8.70;2.63;;;17.70;99.90;;;;;;5063646;28;20040;-75
2022/06/16 06:41:10;;;;;;;6.47;2.30;;;17.90;99.90;;;;;;5064060;28;20123;-75
2022/06/16 06:43:36;;;;;;;8.88;2.80;;;17.90;99.90;;;;;;5051362;28;20036;-75
2022/06/16 06:46:01;;;;;;;5.95;2.08;;;17.90;99.90;;;;;;5069051;28;20064;-75
2022/06/16 06:48:27;;;;;;;8.38;2.20;;;18.00;99.90;;;;;;5066881;28;20097;-75
2022/06/16 06:50:53;;;;;;;6.32;2.00;;;18.00;99.90;;;;;;5060679;28;20142;-75
2022/06/16 06:53:19;;;;;;;7.13;2.38;;;18.10;99.90;;;;;;5044063;28;20040;-75
2022/06/16 06:55:46;;;;;;;5.90;1.83;;;18.00;99.90;;;;;;5085103;28;20064;-75
2022/06/16 06:58:23;;;;;;;7.22;2.10;;;18.10;99.90;;;;;;5059496;28;20524;-75
2022/06/16 07:00:53;;;;;;;5.78;1.90;;;18.10;99.90;;;;;;5081726;28;21115;-75
2022/06/16 07:03:20;;;;;;;5.93;1.90;;;18.10;99.90;;;;;;5069334;28;20401;-75
2022/06/16 07:05:47;;;;;;;7.82;2.47;;;18.20;99.90;;;;;;5081810;28;20024;-75
2022/06/16 07:08:13;;;;;;;7.75;2.35;;;18.20;99.90;;;;;;5078230;28;20047;-75
2022/06/16 07:10:40;;;;;;;8.63;2.10;;;18.30;99.90;;;;;;5082117;28;20070;-75
2022/06/16 07:13:07;;;;;;;8.43;2.28;;;18.40;99.90;;;;;;5051127;28;20499;-75
2022/06/16 07:15:34;;;;;;;7.45;2.20;;;18.50;99.90;;;;;;5083782;28;20488;-75
2022/06/16 07:17:59;;;;;;;6.47;2.10;;;18.70;99.90;;;;;;5082980;28;20493;-75
2022/06/16 07:20:25;;;;;;;7.35;1.95;;;18.70;99.90;;;;;;5081436;28;20028;-75
2022/06/16 07:22:51;;;;;;;7.32;2.00;;;18.80;99.90;;;;;;5080652;28;20393;-75
2022/06/16 07:25:18;;;;;;;8.27;2.22;;;18.80;99.90;;;;;;5080575;28;20104;-75
2022/06/16 07:27:44;;;;;;;7.00;2.15;;;18.80;99.90;;;;;;5084447;28;20042;-75
2022/06/16 07:30:15;;;;;;;5.90;1.88;;;18.70;99.90;;;;;;5045571;28;20032;-75
2022/06/16 07:32:42;;;;;;;5.95;1.80;;;18.90;99.90;;;;;;5082778;28;20040;-75
2022/06/16 07:35:09;;;;;;;5.93;1.92;;;19.00;99.90;;;;;;5068444;28;20028;-75
2022/06/16 07:37:35;;;;;;;8.48;2.10;;;19.10;99.90;;;;;;5024539;28;20553;-75
2022/06/16 07:40:02;;;;;;;5.35;1.70;;;19.20;99.90;;;;;;5065158;28;20478;-75
2022/06/16 07:42:28;;;;;;;8.02;2.08;;;19.20;99.90;;;;;;5085578;28;20104;-75
2022/06/16 07:44:54;;;;;;;6.72;2.10;;;19.30;99.90;;;;;;5077477;28;20506;-75
2022/06/16 07:47:20;;;;;;;6.05;1.73;;;19.40;99.90;;;;;;5067987;28;20040;-75
2022/06/16 07:49:49;;;;;;;8.60;2.17;;;19.50;99.90;;;;;;5048441;28;20351;-75
2022/06/16 07:52:16;;;;;;;6.20;1.98;;;19.60;99.90;;;;;;5068606;28;20050;-75
2022/06/16 07:54:42;;;;;;;7.45;2.00;;;19.70;99.90;;;;;;5064754;28;20116;-75
2022/06/16 07:57:09;;;;;;;7.10;1.90;;;19.80;99.90;;;;;;5084908;28;20040;-75
2022/06/16 07:59:34;;;;;;;7.40;1.70;;;19.80;99.90;;;;;;5082823;28;20498;-75
2022/06/16 08:02:00;;;;;;;5.57;1.73;;;19.80;99.90;;;;;;5047528;28;20059;-75
2022/06/16 08:04:26;;;;;;;5.80;1.73;;;19.80;99.90;;;;;;5067614;28;20044;-75
2022/06/16 08:06:52;;;;;;;6.80;2.00;;;19.80;99.90;;;;;;5068225;28;20088;-75
2022/06/16 08:09:19;;;;;;;6.28;1.98;;;19.80;99.90;;;;;;5081026;28;20501;-75
2022/06/16 08:14:29;;;;;;;6.68;1.95;;;19.70;99.90;;;;;;5083896;28;20051;-75
2022/06/16 08:16:55;;;;;;;7.20;1.90;;;19.70;99.90;;;;;;5048678;28;20055;-75
2022/06/16 08:19:21;;;;;;;7.28;2.20;;;19.90;99.90;;;;;;5047718;28;20048;-75
2022/06/16 08:21:47;;;;;;;7.13;1.80;;;20.00;99.90;;;;;;5048585;28;20094;-75
2022/06/16 08:24:13;;;;;;;6.80;2.00;;;20.00;99.90;;;;;;5066766;28;20499;-75
2022/06/16 08:26:39;;;;;;;7.30;2.35;;;20.10;99.90;;;;;;5043229;28;20040;-75
2022/06/16 08:29:07;;;;;;;8.85;2.30;;;20.20;99.90;;;;;;5066981;28;20363;-75
2022/06/16 08:31:33;;;;;;;6.00;1.83;;;20.20;99.90;;;;;;5084876;28;20032;-75
2022/06/16 08:33:59;;;;;;;4.35;1.73;;;20.20;99.90;;;;;;5030334;28;20182;-75
2022/06/16 08:36:25;;;;;;;5.13;1.73;;;20.30;99.90;;;;;;5085699;28;20039;-75
2022/06/16 08:38:51;;;;;;;7.10;1.77;;;20.50;99.90;;;;;;5062038;28;20518;-75
2022/06/16 08:41:35;;;;;;;6.55;2.05;;;20.70;99.90;;;;;;5039629;28;20097;-75
2022/06/16 08:44:43;;;;;;;7.85;2.30;;;20.70;99.90;;;;;;5083414;28;20054;-75
2022/06/16 08:47:18;;;;;;;7.65;2.40;;;20.80;99.90;;;;;;5063972;28;20554;-75
2022/06/16 08:50:23;;;;;;;8.98;2.35;;;20.70;99.90;;;;;;5082359;28;20296;-75
2022/06/16 08:53:22;;;;;;;8.60;2.10;;;20.70;99.90;;;;;;5096586;28;20052;-75
2022/06/16 08:55:47;;;;;;;7.05;2.10;;;20.70;99.90;;;;;;5082334;28;20064;-75
2022/06/16 08:58:28;;;;;;;10.18;2.50;;;20.50;99.90;;;;;;5082132;28;20055;-75
2022/06/16 09:01:28;;;;;;;6.60;2.33;;;20.50;99.90;;;;;;5081705;28;20044;-75
2022/06/16 09:04:03;;;;;;;7.45;2.28;;;20.60;99.90;;;;;;5062030;28;20529;-75
2022/06/16 09:06:38;;;;;;;7.30;2.15;;;20.70;99.90;;;;;;5053964;28;20080;-75
2022/06/16 09:12:45;;;;;;;7.32;2.40;;;21.20;99.90;;;;;;5081908;28;20619;-75
2022/06/16 09:15:21;;;;;;;7.00;2.13;;;21.30;99.90;;;;;;5068225;28;20120;-75
2022/06/16 09:18:13;;;;;;;6.57;2.15;;;21.40;99.90;;;;;;5069751;28;20039;-75
2022/06/16 09:20:52;;;;;;;6.22;2.20;;;21.60;99.90;;;;;;5068445;28;20096;-75
2022/06/16 09:23:48;;;;;;;8.40;2.30;;;21.60;99.90;;;;;;5069233;28;20040;-75
2022/06/16 09:26:23;;;;;;;9.73;2.50;;;21.60;99.90;;;;;;5081176;28;20040;-75
2022/06/16 09:29:17;;;;;;;8.57;2.58;;;21.60;99.90;;;;;;5065817;28;20059;-75
2022/06/16 09:31:52;;;;;;;8.07;2.60;;;21.50;99.90;;;;;;5071114;28;20245;-75
2022/06/16 09:34:42;;;;;;;7.35;2.60;;;21.30;99.90;;;;;;5084793;28;20096;-75
2022/06/16 09:37:40;;;;;;;8.00;2.90;;;21.10;99.90;;;;;;5066232;28;20062;-75
2022/06/16 09:40:20;;;;;;;7.88;2.78;;;20.90;99.90;;;;;;5054477;28;20657;-75
2022/06/16 09:42:58;;;;;;;8.68;2.67;;;21.00;99.90;;;;;;5083423;28;20349;-75
2022/06/16 09:45:35;;;;;;;8.63;3.05;;;21.10;99.90;;;;;;5070074;28;20052;-75
2022/06/16 09:48:22;;;;;;;7.90;2.30;;;21.10;99.90;;;;;;5067810;28;20036;-75
2022/06/16 09:51:13;;;;;;;6.38;2.17;;;21.10;99.90;;;;;;5086828;28;20039;-75
2022/06/16 09:53:44;;;;;;;7.18;2.60;;;21.20;99.90;;;;;;5066271;28;20044;-76
2022/06/16 09:56:12;;;;;;;8.20;2.45;;;21.30;99.90;;;;;;5083812;28;20461;-76
2022/06/16 09:58:52;;;;;;;8.15;2.80;;;21.50;99.90;;;;;;5065835;28;20040;-76
2022/06/16 10:01:20;;;;;;;9.35;2.47;;;21.60;99.90;;;;;;5067780;28;20051;-75
2022/06/16 10:03:53;;;;;;;7.57;2.70;;;21.70;99.90;;;;;;5067662;28;20048;-75
2022/06/16 10:06:24;;;;;;;7.05;2.70;;;21.70;99.90;;;;;;5070207;28;20048;-75
2022/06/16 10:09:05;;;;;;;9.02;2.92;;;21.80;99.90;;;;;;5083805;28;20106;-75
2022/06/16 10:11:42;;;;;;;8.45;2.55;;;21.80;99.90;;;;;;5087784;28;20101;-76
2022/06/16 10:14:35;;;;;;;7.57;2.33;;;21.80;99.90;;;;;;5062799;28;20427;-76
2022/06/16 10:17:05;;;;;;;8.32;2.75;;;21.80;99.90;;;;;;5087908;28;20034;-76
2022/06/16 10:19:34;;;;;;;8.50;2.78;;;21.80;99.90;;;;;;5066496;28;20043;-76
2022/06/16 10:22:01;;;;;;;7.05;2.63;;;22.00;99.90;;;;;;5083295;28;20206;-75
2022/06/16 10:24:48;;;;;;;7.20;2.50;;;22.00;99.90;;;;;;5069569;28;20036;-75
2022/06/16 10:27:16;;;;;;;8.30;2.60;;;22.20;99.90;;;;;;5082309;28;20061;-76
2022/06/16 10:29:57;;;;;;;7.72;2.83;;;22.20;99.90;;;;;;5086211;28;20466;-75
2022/06/16 10:32:36;;;;;;;8.65;3.08;;;22.30;99.90;;;;;;5061826;28;20121;-76
2022/06/16 10:35:04;;;;;;;7.13;2.50;;;22.40;99.90;;;;;;5082795;28;20512;-76
2022/06/16 10:37:30;;;;;;;8.98;2.70;;;22.30;99.90;;;;;;5084633;28;20594;-75
2022/06/16 10:40:12;;;;;;;10.95;3.08;;;22.30;99.90;;;;;;5069740;28;20378;-75
2022/06/16 10:42:43;;;;;;;7.93;2.78;;;22.50;99.90;;;;;;5068100;28;20480;-75
2022/06/16 10:45:14;;;;;;;8.18;2.70;;;22.50;99.90;;;;;;5085525;28;20540;-76
2022/06/16 10:47:51;;;;;;;7.28;2.67;;;22.50;99.90;;;;;;5060642;28;20048;-75
2022/06/16 10:50:28;;;;;;;7.55;2.80;;;22.60;99.90;;;;;;5060254;28;20089;-76
2022/06/16 10:53:01;;;;;;;7.78;2.80;;;22.70;99.90;;;;;;5086819;28;20040;-75
2022/06/16 10:55:34;;;;;;;8.55;3.08;;;22.60;99.90;;;;;;5084375;28;20257;-74
2022/06/16 10:58:06;;;;;;;8.32;2.92;;;22.70;99.90;;;;;;5085598;28;20040;-76
2022/06/16 11:00:35;;;;;;;8.10;2.80;;;22.60;99.90;;;;;;5068414;28;20039;-75
2022/06/16 11:03:04;;;;;;;8.43;2.72;;;22.50;99.90;;;;;;5070200;28;20036;-76
2022/06/16 11:05:32;;;;;;;7.93;2.63;;;22.60;99.90;;;;;;5070273;28;20028;-76
2022/06/16 11:08:35;;;;;;;6.60;2.50;;;22.50;99.90;;;;;;5066795;28;20426;-76
2022/06/16 11:11:01;;;;;;;7.85;2.90;;;22.60;99.90;;;;;;5085756;28;20511;-75
2022/06/16 11:13:34;;;;;;;8.70;3.00;;;22.70;99.90;;;;;;5083535;28;20382;-75
2022/06/16 11:16:06;;;;;;;8.48;3.05;;;22.90;99.90;;;;;;5061808;28;20043;-76
2022/06/16 11:18:33;;;;;;;8.27;2.53;;;22.90;99.90;;;;;;5063710;28;20040;-75
2022/06/16 11:21:10;;;;;;;10.40;2.90;;;22.90;99.90;;;;;;5067556;28;20118;-76
2022/06/16 11:23:50;;;;;;;8.95;2.50;;;22.80;99.90;;;;;;5084609;28;20278;-76
2022/06/16 11:26:16;;;;;;;7.95;2.50;;;23.00;99.90;;;;;;5083998;28;20036;-76
2022/06/16 11:28:55;;;;;;;7.80;2.30;;;23.00;99.90;;;;;;5069617;28;20039;-75
2022/06/16 11:31:23;;;;;;;7.32;2.67;;;23.20;99.90;;;;;;5065322;28;20041;-76
2022/06/16 11:34:24;;;;;;;8.05;2.70;;;23.20;99.90;;;;;;5064125;28;20043;-76
2022/06/16 11:37:03;;;;;;;7.70;2.45;;;23.10;99.90;;;;;;5082858;28;20069;-75
2022/06/16 11:40:04;;;;;;;8.77;2.60;;;23.20;99.90;;;;;;5076793;28;20040;-76
2022/06/16 11:42:57;;;;;;;6.88;2.50;;;23.10;99.90;;;;;;5066913;28;20529;-76
2022/06/16 11:45:38;;;;;;;7.93;2.55;;;23.00;99.90;;;;;;5056498;28;20044;-76
2022/06/16 11:48:25;;;;;;;10.75;2.92;;;22.90;99.90;;;;;;5077906;28;20047;-76
2022/06/16 11:50:56;;;;;;;9.20;2.88;;;22.90;99.90;;;;;;5082996;28;20343;-76
2022/06/16 11:53:49;;;;;;;8.20;2.60;;;22.90;99.90;;;;;;5084181;28;20032;-76
2022/06/16 11:56:39;;;;;;;7.20;2.40;;;23.00;99.90;;;;;;5080480;28;20514;-76
2022/06/16 11:59:34;;;;;;;8.00;2.40;;;23.20;99.90;;;;;;5061115;28;20059;-76
2022/06/16 12:02:21;;;;;;;8.05;2.50;;;23.30;99.90;;;;;;5083849;28;20044;-75
2022/06/16 12:05:08;;;;;;;7.63;2.40;;;23.40;99.90;;;;;;5080197;28;20043;-76
2022/06/16 12:07:47;;;;;;;6.35;2.30;;;23.40;99.90;;;;;;5081727;28;20169;-76
2022/06/16 12:10:32;;;;;;;8.00;2.47;;;23.40;99.40;;;;;;5066907;28;20056;-76
2022/06/16 12:13:00;;;;;;;6.53;2.17;;;23.50;99.40;;;;;;5084962;28;20474;-76
2022/06/16 12:15:51;;;;;;;7.38;2.50;;;23.50;98.90;;;;;;5082992;28;20125;-76
2022/06/16 12:18:47;;;;;;;8.90;2.55;;;23.60;97.60;;;;;;5085084;28;20402;-76
2022/06/16 12:21:25;;;;;;;7.55;2.30;;;23.60;98.30;;;;;;5082327;28;20115;-77
2022/06/16 12:24:02;;;;;;;6.53;2.40;;;23.60;97.10;;;;;;5084098;28;20040;-75
2022/06/16 12:26:40;;;;;;;7.65;2.40;;;23.60;96.90;;;;;;5101143;28;20035;-76
2022/06/16 12:29:25;;;;;;;7.93;2.20;;;23.60;96.10;;;;;;5080654;28;20086;-76
2022/06/16 12:32:16;;;;;;;8.13;2.30;;;23.60;96.30;;;;;;5085865;28;20537;-76
2022/06/16 12:34:59;;;;;;;7.55;2.15;;;23.60;95.80;;;;;;5081665;28;20351;-75
2022/06/16 12:37:30;;;;;;;6.25;2.10;;;23.60;95.60;;;;;;5095853;28;20127;-76
2022/06/16 12:40:02;;;;;;;7.10;2.20;;;23.60;95.70;;;;;;5065260;28;20032;-76
2022/06/16 12:42:34;;;;;;;7.30;2.30;;;23.70;95.50;;;;;;5082231;28;20368;-76
2022/06/16 12:45:27;;;;;;;8.32;2.63;;;23.60;95.80;;;;;;5083395;28;20327;-76
2022/06/16 12:47:58;;;;;;;6.45;2.17;;;23.80;95.70;;;;;;5079202;28;20395;-76
2022/06/16 12:50:33;;;;;;;7.60;2.08;;;23.90;96.00;;;;;;5084307;28;20739;-75
2022/06/16 12:53:07;;;;;;;7.38;2.22;;;24.00;95.10;;;;;;5070333;28;20073;-76
2022/06/16 12:55:41;;;;;;;7.93;2.38;;;24.10;95.20;;;;;;5084201;28;20075;-75
2022/06/16 12:58:33;;;;;;;7.30;2.58;;;24.10;94.10;;;;;;5083549;28;20150;-76
2022/06/16 13:01:03;;;;;;;6.88;2.33;;;24.10;94.50;;;;;;5084536;28;20044;-76
2022/06/16 13:03:34;;;;;;;8.27;2.30;;;24.00;94.60;;;;;;5085659;28;20027;-76
2022/06/16 13:06:01;;;;;;;7.70;2.65;;;24.00;94.80;;;;;;5087085;28;20098;-76
2022/06/16 13:08:32;;;;;;;5.38;2.03;;;24.10;94.30;;;;;;5067114;28;20059;-76
2022/06/16 13:11:03;;;;;;;7.43;2.30;;;24.10;94.30;;;;;;5086993;28;20036;-77
2022/06/16 13:13:39;;;;;;;6.10;2.22;;;24.10;94.80;;;;;;5068999;28;20036;-76
2022/06/16 13:16:07;;;;;;;8.18;2.30;;;24.10;93.90;;;;;;5068962;28;20548;-76
2022/06/16 13:18:51;;;;;;;8.38;2.42;;;24.10;94.10;;;;;;5087633;28;20076;-76
2022/06/16 13:21:23;;;;;;;8.30;2.40;;;24.20;95.00;;;;;;5084915;28;20509;-76
2022/06/16 13:23:55;;;;;;;9.15;3.03;;;24.30;95.30;;;;;;5067019;28;20051;-76
2022/06/16 13:26:21;;;;;;;8.02;2.45;;;24.30;94.90;;;;;;5086309;28;20177;-76
2022/06/16 13:29:07;;;;;;;7.18;2.75;;;24.20;94.70;;;;;;5069356;28;20434;-77
2022/06/16 13:31:42;;;;;;;8.43;2.40;;;24.20;94.50;;;;;;5086164;28;20047;-76
2022/06/16 13:34:08;;;;;;;8.85;2.25;;;24.20;94.00;;;;;;5069227;28;20044;-76
2022/06/16 13:36:34;;;;;;;7.75;2.40;;;24.10;94.20;;;;;;5089478;28;20036;-76